Flight Track Log - Related Links

Times and Time Zones

All times are in EDT time to prevent confusion due to time zone crossing. See the FAO9000 flight status page for this flight to view local times or setup timezone preferences in your user account.

Time Position Orientation Groundspeed Altitude Reporting Facility
EDT Latitude Longitude Course Direction KTS MPH feet Rate Location/Type
Tue 10:25:27 AM 28.4333 -81.3167 360° North 166 191 900  Level Orlando TRACON
Tue 10:26:33 AM 28.5000 -81.3167 360° North 216 249 4,100 3,050 Climbing Orlando TRACON
Tue 10:27:27 AM 28.5667 -81.3167 360° North 281 323 7,000 3,055 Climbing Orlando TRACON
Tue 10:29:18 AM 28.7103 -81.3350 354° North 318 366 12,500 2,718 Climbing Jacksonville Center
Tue 10:30:17 AM 28.8064 -81.3500 352° North 325 374 14,700 2,521 Climbing Jacksonville Center
Tue 10:31:17 AM 28.9089 -81.3603 355° North 345 397 17,500 2,700 Climbing Jacksonville Center
Tue 10:32:17 AM 29.0156 -81.3778 352° North 368 423 20,100 2,430 Climbing Jacksonville Center
Tue 10:33:18 AM 29.1303 -81.3903 355° North 389 448 22,400 2,250 Climbing Jacksonville Center
Tue 10:34:17 AM 29.2392 -81.4172 348° North 399 459 24,600 2,000 Climbing Jacksonville Center
Tue 10:35:18 AM 29.3400 -81.4728 334° Northwest 399 459 26,400 2,033 Climbing Jacksonville Center
Tue 10:36:18 AM 29.4428 -81.5261 336° Northwest 399 459 28,700 2,100 Climbing Jacksonville Center
Tue 10:37:18 AM 29.5539 -81.5581 346° North 399 459 30,600 1,700 Climbing Jacksonville Center
Tue 10:38:18 AM 29.6750 -81.5517 North 404 465 32,100 1,200 Climbing Jacksonville Center
Tue 10:39:18 AM 29.8125 -81.5400 North 432 497 33,000 1,250 Climbing Jacksonville Center
Tue 10:40:18 AM 29.9336 -81.5336 North 440 506 34,600 1,400 Climbing Jacksonville Center
Tue 10:41:18 AM 30.0525 -81.5294 North 435 501 35,800 1,000 Climbing Jacksonville Center
Tue 10:42:18 AM 30.1694 -81.5206 North 423 487 36,600 600 Climbing Jacksonville Center
Tue 10:43:18 AM 30.2903 -81.5167 North 423 487 37,000 202 Climbing Jacksonville Center
Tue 10:44:17 AM 30.4133 -81.5028 North 423 487 37,000  Level Jacksonville Center
Tue 10:45:18 AM 30.5367 -81.4961 North 429 494 37,000  Level Jacksonville Center
Tue 10:46:18 AM 30.6575 -81.4847 North 434 499 37,000  Level Jacksonville Center
Tue 10:47:18 AM 30.7786 -81.4781 North 434 499 37,000  Level Jacksonville Center
Tue 10:48:18 AM 30.9017 -81.4689 North 434 499 37,000  Level Jacksonville Center
Tue 10:49:18 AM 31.0206 -81.4575 North 434 499 37,000  Level Jacksonville Center
Tue 10:50:18 AM 31.1414 -81.4483 North 434 499 37,000  Level Jacksonville Center
Tue 10:51:18 AM 31.2603 -81.4367 North 425 489 37,000  Level Jacksonville Center
Tue 10:52:17 AM 31.3792 -81.4058 12° North 431 496 37,000  Level Jacksonville Center
Tue 10:53:18 AM 31.4853 -81.3772 13° North 432 497 37,000  Level Jacksonville Center
Tue 10:54:18 AM 31.6183 -81.3286 17° North 432 497 37,000  Level Jacksonville Center
Tue 10:55:18 AM 31.7197 -81.2586 30° Northeast 458 527 37,000  Level Jacksonville Center
Tue 10:56:18 AM 31.8436 -81.1636 33° Northeast 475 547 37,000  Level Jacksonville Center
Tue 10:57:18 AM 31.9572 -81.0781 33° Northeast 482 555 37,000  Level Jacksonville Center
Tue 10:58:18 AM 32.0583 -80.9978 34° Northeast 477 549 37,000  Level Jacksonville Center
Tue 10:59:18 AM 32.1844 -80.9042 32° Northeast 480 552 37,000  Level Jacksonville Center
Tue 11:00:18 AM 32.2833 -80.8283 33° Northeast 475 547 37,000  Level Jacksonville Center
Tue 11:01:18 AM 32.4050 -80.7322 34° Northeast 480 552 37,000  Level Jacksonville Center
Tue 11:02:18 AM 32.5161 -80.6483 32° Northeast 474 545 37,000  Level Jacksonville Center
Tue 11:03:18 AM 32.6272 -80.5617 33° Northeast 473 544 37,000  Level Jacksonville Center
Tue 11:04:18 AM 32.7383 -80.4772 33° Northeast 473 544 37,000  Level Jacksonville Center
Tue 11:05:18 AM 32.8561 -80.4147 24° Northeast 463 533 37,000  Level Jacksonville Center
Tue 11:06:18 AM 32.9781 -80.3494 24° Northeast 457 526 37,000  Level Jacksonville Center
Tue 11:07:18 AM 33.0875 -80.2942 23° Northeast 450 518 37,000  Level Jacksonville Center
Tue 11:08:18 AM 33.2072 -80.2311 24° Northeast 450 518 37,000  Level Jacksonville Center
Tue 11:09:18 AM 33.3147 -80.1758 23° Northeast 457 526 37,000  Level Jacksonville Center
Tue 11:10:18 AM 33.4261 -80.1178 24° Northeast 452 520 37,000  Level Jacksonville Center
Tue 11:11:18 AM 33.5436 -80.0542 24° Northeast 446 513 37,000  Level Jacksonville Center
Tue 11:12:18 AM 33.6611 -79.9931 23° Northeast 451 519 37,000  Level Jacksonville Center
Tue 11:13:18 AM 33.7767 -79.9317 24° Northeast 451 519 37,000  Level Jacksonville Center
Tue 11:15:09 AM 33.9931 -79.8147 24° Northeast 446 513 37,000  Level Washington Center
Tue 11:16:09 AM 34.0928 -79.7619 24° Northeast 446 513 37,000  Level Washington Center
Tue 11:17:07 AM 34.2119 -79.7003 23° Northeast 446 513 37,000  Level Washington Center
Tue 11:18:08 AM 34.3289 -79.6356 25° Northeast 451 519 37,000  Level Washington Center
Tue 11:19:09 AM 34.4436 -79.5733 24° Northeast 451 519 37,000  Level Washington Center
Tue 11:20:09 AM 34.5603 -79.5108 24° Northeast 451 519 37,000  Level Washington Center
Tue 11:21:10 AM 34.6772 -79.4483 24° Northeast 446 513 37,000 -347 Level Washington Center
Tue 11:22:10 AM 34.7919 -79.3856 24° Northeast 446 513 36,300 -800 Descending Washington Center
Tue 11:23:10 AM 34.9022 -79.3247 24° Northeast 446 513 35,400 -661 Descending Washington Center
Tue 11:24:08 AM 35.0125 -79.2639 24° Northeast 441 507 35,000 -202 Descending Washington Center
Tue 11:25:09 AM 35.1231 -79.2031 24° Northeast 436 502 35,000  Level Washington Center
Tue 11:26:09 AM 35.2375 -79.1394 24° Northeast 436 502 35,000  Level Washington Center
Tue 11:27:10 AM 35.3500 -79.0783 24° Northeast 442 509 35,000  Level Washington Center
Tue 11:28:08 AM 35.4644 -79.0169 24° Northeast 442 509 35,000  Level Washington Center
Tue 11:29:09 AM 35.5894 -78.9481 24° Northeast 447 514 35,000 -298 Level Washington Center
Tue 11:30:09 AM 35.7061 -78.8842 24° Northeast 447 514 34,400 -1,041 Descending Washington Center
Tue 11:31:10 AM 35.8206 -78.8197 25° Northeast 447 514 32,900 -1,563 Descending Washington Center
Tue 11:32:08 AM 35.9347 -78.7550 25° Northeast 447 514 31,300 -1,613 Descending Washington Center
Tue 11:33:09 AM 36.0514 -78.6878 25° Northeast 447 514 29,700 -1,574 Descending Washington Center
Tue 11:34:10 AM 36.1678 -78.6228 24° Northeast 447 514 28,100 -1,361 Descending Washington Center
Tue 11:35:08 AM 36.2822 -78.5553 25° Northeast 447 514 27,000 -555 Descending Washington Center
Tue 11:36:09 AM 36.3983 -78.4925 24° Northeast 447 514 27,000 -50 Level Washington Center
Tue 11:37:09 AM 36.5106 -78.4269 25° Northeast 447 514 26,900 -1,041 Descending Washington Center
Tue 11:38:10 AM 36.6247 -78.3611 25° Northeast 447 514 24,900 -1,916 Descending Washington Center
Tue 11:39:08 AM 36.7264 -78.3000 26° Northeast 447 514 23,100 -1,462 Descending Washington Center
Tue 11:40:09 AM 36.8300 -78.2361 26° Northeast 433 498 22,000 -541 Descending Washington Center
Tue 11:41:10 AM 36.9378 -78.1775 23° Northeast 423 487 22,000  Level Washington Center
Tue 11:42:08 AM 37.0433 -78.1133 26° Northeast 423 487 22,000  Level Washington Center
Tue 11:43:09 AM 37.1511 -78.0517 25° Northeast 423 487 22,000  Level Washington Center
Tue 11:44:09 AM 37.2608 -77.9875 25° Northeast 423 487 22,000  Level Washington Center
Tue 11:45:07 AM 37.3664 -77.9228 26° Northeast 423 487 22,000  Level Washington Center
Tue 11:46:08 AM 37.4761 -77.8606 24° Northeast 423 487 22,000  Level Washington Center
Tue 11:47:09 AM 37.5858 -77.7958 25° Northeast 428 493 22,000 -738 Level Washington Center
Tue 11:48:10 AM 37.6933 -77.7333 25° Northeast 428 493 20,500 -2,017 Descending Washington Center
Tue 11:49:08 AM 37.7964 -77.6731 25° Northeast 418 481 18,000 -2,471 Descending Washington Center
Tue 11:50:09 AM 37.8933 -77.6153 25° Northeast 397 457 15,600 -2,826 Descending Washington Center
Tue 11:51:09 AM 37.9883 -77.5572 26° Northeast 383 441 12,300 -2,777 Descending Washington Center
Tue 11:52:10 AM 38.0828 -77.5069 23° Northeast 377 434 10,000 -1,109 Descending Washington Center
Tue 11:53:08 AM 38.1628 -77.4589 25° Northeast 343 395 10,100 51 Climbing Washington Center
Tue 11:54:08 AM 38.2367 -77.4131 26° Northeast 308 354 10,100 -300 Level Washington Center
Tue 11:55:08 AM 38.3122 -77.3700 24° Northeast 296 341 9,500 -1,091 Descending Washington Center
Tue 11:56:09 AM 38.3917 -77.3586 North 289 333 7,900 -1,190 Descending Washington Center
Tue 11:57:09 AM 38.4708 -77.3606 359° North 284 327 7,100 -400 Descending Washington Center
Tue 11:58:09 AM 38.5522 -77.3650 358° North 279 321 7,100 -149 Level Washington Center
Tue 11:59:10 AM 38.6225 -77.4039 337° Northwest 279 321 6,800 -992 Descending Washington Center
Tue 12:00:10 PM 38.6950 -77.4350 341° North 272 313 5,100 -1,627 Descending Washington Center
Tue 12:01:08 PM 38.7614 -77.4500 350° North 256 295 3,600 -1,008 Descending Washington Center
Tue 12:02:21 PM 38.8167 -77.4667 347° North 147 169 2,900 -722 Descending Potomac TRACON
Tue 12:03:21 PM 38.8500 -77.4667 360° North 125 144 2,000 -850 Descending Potomac TRACON
Tue 12:04:21 PM 38.8833 -77.4667 360° North 120 138 1,200 -714 Descending Potomac TRACON
Tue 12:05:27 PM 38.9333 -77.4667 360° North 123 142 500 -636 Descending Potomac TRACON
Tue 12:07:00 PM 38.9333 -77.4500 349° North  Level FlightAware Approximate
Tue 12:14:00 PM 38.9474 -77.4599 349° North  Level Estimated
Tue 12:15:00 PM 38.9474 -77.4599 349° North  Level Estimated
Tue 12:16:00 PM 38.9474 -77.4599 349° North  Level Estimated
Tue 12:17:00 PM 38.9474 -77.4599 349° North  Level Estimated
Tue 12:18:00 PM 38.9474 -77.4599 349° North  Level Estimated

Login

Don't have an account? Register now (free) for customized features, flight alerts, and more!